Time;durP1;ratioP1;P1;durP2;ratioP2;P2;SDS_P1;SDS_P2;PMS_P1;PMS_P2;Temp;Humidity;BMP_temperature;BMP_pressure;BME280_temperature;BME280_humidity;BME280_pressure;Samples;Min_cycle;Max_cycle;Signal;HPM_P1;HPM_P2
2022/04/24 00:00:25;;;;;;;20.80;12.77;;;7.80;99.90;;;;;;4935488;29;20255;-77
2022/04/24 00:02:53;;;;;;;27.50;17.07;;;7.80;99.90;;;;;;4929255;29;20203;-77
2022/04/24 00:05:20;;;;;;;26.07;16.40;;;7.80;99.90;;;;;;4938494;29;20203;-76
2022/04/24 00:08:26;;;;;;;21.67;13.37;;;7.80;99.90;;;;;;4938700;29;20209;-77
2022/04/24 00:10:53;;;;;;;19.80;11.40;;;7.80;99.90;;;;;;4937615;29;20201;-77
2022/04/24 00:13:23;;;;;;;14.53;9.33;;;7.70;99.90;;;;;;4938453;29;20604;-77
2022/04/24 00:15:50;;;;;;;12.47;8.47;;;7.80;99.90;;;;;;4937926;29;20269;-78
2022/04/24 00:18:18;;;;;;;10.00;7.50;;;7.80;99.90;;;;;;4937583;29;20257;-77
2022/04/24 00:21:06;;;;;;;9.57;6.90;;;7.90;99.90;;;;;;4938231;29;20579;-77
2022/04/24 00:23:52;;;;;;;8.97;6.27;;;7.90;99.90;;;;;;4942362;29;20232;-77
2022/04/24 00:26:29;;;;;;;9.70;6.10;;;8.00;99.90;;;;;;4938346;29;20216;-77
2022/04/24 00:28:56;;;;;;;9.77;6.77;;;8.00;99.90;;;;;;4938176;29;20219;-77
2022/04/24 00:31:23;;;;;;;10.33;7.00;;;8.00;99.90;;;;;;4945254;28;20664;-77
2022/04/24 00:33:50;;;;;;;10.17;6.47;;;8.00;99.90;;;;;;4976485;28;20326;-77
2022/04/24 00:36:21;;;;;;;10.23;7.37;;;8.00;99.90;;;;;;4976422;28;20275;-77
2022/04/24 00:38:48;;;;;;;18.17;11.53;;;8.00;99.90;;;;;;4978628;28;20659;-77
2022/04/24 00:41:57;;;;;;;25.17;14.10;;;8.00;99.90;;;;;;5032866;28;20209;-77
2022/04/24 00:44:17;;;;;;;23.87;14.80;;;7.90;99.90;;;;;;5028144;28;20195;-78
2022/04/24 00:47:00;;;;;;;24.00;14.97;;;7.90;99.90;;;;;;5036891;28;20731;-78
2022/04/24 00:49:28;;;;;;;28.43;16.40;;;7.90;99.90;;;;;;5037082;28;20266;-77
2022/04/24 00:51:56;;;;;;;27.87;16.73;;;7.80;99.90;;;;;;5033800;28;20264;-77
2022/04/24 00:54:34;;;;;;;;;;;;;;;;;;;;;
2022/04/24 00:57:10;;;;;;;38.43;20.60;;;7.60;99.90;;;;;;5031103;28;20230;-78
2022/04/24 00:59:40;;;;;;;34.80;20.83;;;7.50;99.90;;;;;;5032681;28;20194;-78
2022/04/24 01:02:11;;;;;;;37.13;22.27;;;7.40;99.90;;;;;;5032550;28;20236;-77
2022/04/24 01:04:39;;;;;;;38.03;23.43;;;7.30;99.90;;;;;;5032510;28;20288;-78
2022/04/24 01:07:15;;;;;;;41.27;24.20;;;7.20;99.90;;;;;;5032331;28;20600;-78
2022/04/24 01:09:45;;;;;;;45.47;26.27;;;7.10;99.90;;;;;;5033780;28;20616;-77
2022/04/24 01:12:14;;;;;;;48.83;27.47;;;7.00;99.90;;;;;;5032531;28;20262;-77
2022/04/24 01:14:41;;;;;;;49.70;27.57;;;7.00;99.90;;;;;;5032063;28;20566;-77
2022/04/24 01:17:09;;;;;;;45.47;27.83;;;6.90;99.90;;;;;;5032410;28;20226;-77
2022/04/24 01:20:22;;;;;;;45.53;26.67;;;6.90;99.90;;;;;;5032636;28;20297;-77
2022/04/24 01:22:49;;;;;;;45.20;27.23;;;6.90;99.90;;;;;;5032129;28;20208;-77
2022/04/24 01:25:17;;;;;;;44.50;27.00;;;6.90;99.90;;;;;;5032159;28;20601;-78
2022/04/24 01:27:47;;;;;;;48.37;27.43;;;6.90;99.90;;;;;;5032894;28;20935;-77
2022/04/24 01:30:14;;;;;;;45.80;26.97;;;6.90;99.90;;;;;;5042075;28;20187;-77
2022/04/24 01:32:42;;;;;;;45.73;26.03;;;6.90;99.90;;;;;;5032280;28;20253;-77
2022/04/24 01:35:11;;;;;;;46.17;26.67;;;6.90;99.90;;;;;;5031731;28;20591;-76
2022/04/24 01:37:43;;;;;;;44.23;25.40;;;6.80;99.90;;;;;;5032490;28;20680;-77
2022/04/24 01:40:10;;;;;;;44.10;25.23;;;6.80;99.90;;;;;;5032060;28;20204;-77
2022/04/24 01:42:37;;;;;;;42.47;24.07;;;6.80;99.90;;;;;;5032239;28;20535;-77
2022/04/24 01:45:05;;;;;;;40.50;23.70;;;6.80;99.90;;;;;;5033003;28;20607;-76
2022/04/24 01:47:32;;;;;;;42.23;24.27;;;6.90;99.90;;;;;;5032048;28;20206;-77
2022/04/24 01:50:00;;;;;;;39.63;23.27;;;6.80;99.90;;;;;;5032151;28;20327;-77
2022/04/24 01:52:29;;;;;;;38.37;22.93;;;6.80;99.90;;;;;;5032310;28;20243;-76
2022/04/24 01:54:57;;;;;;;40.00;23.17;;;6.70;99.90;;;;;;5031975;28;20229;-77
2022/04/24 01:57:24;;;;;;;37.23;22.33;;;6.70;99.90;;;;;;5031975;28;20222;-77
2022/04/24 01:59:51;;;;;;;35.13;21.60;;;6.70;99.90;;;;;;5032194;28;20205;-77
2022/04/24 02:02:47;;;;;;;;;;;;;;;;;;;;;
2022/04/24 02:05:15;;;;;;;34.70;20.47;;;6.70;99.90;;;;;;4967203;28;20211;-77
2022/04/24 02:07:42;;;;;;;37.93;21.90;;;6.70;99.90;;;;;;5032269;28;20250;-77
2022/04/24 02:10:09;;;;;;;36.00;20.93;;;6.80;99.90;;;;;;5032170;28;20230;-76
2022/04/24 02:12:40;;;;;;;34.80;20.27;;;6.70;99.90;;;;;;5031899;28;20201;-77
2022/04/24 02:15:08;;;;;;;33.60;19.83;;;6.80;99.90;;;;;;5031991;28;20252;-76
2022/04/24 02:17:35;;;;;;;36.30;20.17;;;6.80;99.90;;;;;;5032101;28;20279;-77
2022/04/24 02:20:03;;;;;;;35.17;19.93;;;6.80;99.90;;;;;;5031981;28;20202;-77
2022/04/24 02:22:34;;;;;;;33.57;19.90;;;6.90;99.90;;;;;;5032080;28;20306;-77
2022/04/24 02:25:01;;;;;;;33.07;19.90;;;6.90;99.90;;;;;;5031814;28;20204;-77
2022/04/24 02:27:28;;;;;;;33.37;19.20;;;6.80;99.90;;;;;;5033426;28;20189;-77
2022/04/24 02:30:54;;;;;;;32.07;19.93;;;6.80;99.90;;;;;;5033465;28;20201;-77
2022/04/24 02:33:21;;;;;;;32.13;19.00;;;6.90;99.90;;;;;;4914591;28;20208;-77
2022/04/24 02:35:48;;;;;;;31.07;18.67;;;6.90;99.90;;;;;;4914892;29;20615;-77
2022/04/24 02:38:15;;;;;;;31.90;18.27;;;6.90;99.90;;;;;;4915122;29;20264;-77
2022/04/24 02:40:42;;;;;;;30.80;18.20;;;6.90;99.90;;;;;;4899736;29;20239;-77
2022/04/24 02:43:09;;;;;;;30.83;17.70;;;7.00;99.90;;;;;;4918397;29;20218;-77
2022/04/24 02:45:47;;;;;;;;;;;;;;;;;;;;;
2022/04/24 02:48:18;;;;;;;30.30;17.90;;;6.80;99.90;;;;;;4929607;29;20337;-77
2022/04/24 02:50:47;;;;;;;32.00;18.17;;;6.80;99.90;;;;;;4920947;29;20219;-77
2022/04/24 02:53:22;;;;;;;29.23;17.60;;;6.80;99.90;;;;;;4921510;29;20213;-77
2022/04/24 02:55:52;;;;;;;28.50;17.03;;;6.70;99.90;;;;;;4936776;29;20240;-77
2022/04/24 02:58:27;;;;;;;29.60;17.63;;;6.70;99.90;;;;;;4921099;29;20657;-77
2022/04/24 03:00:56;;;;;;;30.60;17.80;;;6.70;99.90;;;;;;4921013;29;20726;-77
2022/04/24 03:03:24;;;;;;;29.57;16.70;;;6.70;99.90;;;;;;4921518;29;20209;-77
2022/04/24 03:06:01;;;;;;;30.67;17.17;;;6.70;99.90;;;;;;4936893;29;20198;-77
2022/04/24 03:08:51;;;;;;;27.10;16.37;;;6.60;99.90;;;;;;4916767;28;20212;-77
2022/04/24 03:11:18;;;;;;;30.00;15.70;;;6.60;99.90;;;;;;5055152;28;20212;-77
2022/04/24 03:13:45;;;;;;;30.43;16.47;;;6.60;99.90;;;;;;5056034;28;20210;-77
2022/04/24 03:16:12;;;;;;;27.07;16.23;;;6.50;99.90;;;;;;5054683;28;20194;-77
2022/04/24 03:18:40;;;;;;;29.50;16.90;;;6.50;99.90;;;;;;5054605;28;20252;-77
2022/04/24 03:21:07;;;;;;;28.33;16.10;;;6.40;99.90;;;;;;5054609;28;20689;-77
2022/04/24 03:23:34;;;;;;;30.03;16.70;;;6.30;99.90;;;;;;5054578;28;20256;-77
2022/04/24 03:26:01;;;;;;;29.13;16.37;;;6.30;99.90;;;;;;5054440;28;20647;-77
2022/04/24 03:28:28;;;;;;;27.80;16.57;;;6.40;99.90;;;;;;5048327;28;20631;-77
2022/04/24 03:30:55;;;;;;;30.53;16.93;;;6.30;99.90;;;;;;5044568;28;20306;-76
2022/04/24 03:33:25;;;;;;;29.00;15.97;;;6.40;99.90;;;;;;5035925;28;20253;-77
2022/04/24 03:35:52;;;;;;;29.97;16.47;;;6.30;99.90;;;;;;5021490;28;20187;-77
2022/04/24 03:38:22;;;;;;;26.90;16.23;;;6.20;99.90;;;;;;5037715;28;20687;-77
2022/04/24 03:40:49;;;;;;;26.63;16.20;;;6.20;99.90;;;;;;5038345;28;20236;-77
2022/04/24 03:43:16;;;;;;;28.20;16.43;;;6.20;99.90;;;;;;5038032;28;20547;-77
2022/04/24 03:45:43;;;;;;;27.17;16.50;;;6.10;99.90;;;;;;5037737;28;20200;-77
2022/04/24 03:48:31;;;;;;;24.87;14.90;;;6.10;99.90;;;;;;5037883;28;20189;-78
2022/04/24 03:51:02;;;;;;;27.57;15.63;;;5.90;99.90;;;;;;4958119;28;20314;-77
2022/04/24 03:53:29;;;;;;;27.27;15.67;;;6.00;99.90;;;;;;4958170;28;20257;-77
2022/04/24 03:55:56;;;;;;;28.30;15.80;;;5.90;99.90;;;;;;4958167;28;20295;-78
2022/04/24 03:58:23;;;;;;;26.33;14.80;;;5.90;99.90;;;;;;4958388;28;20639;-77
2022/04/24 04:00:50;;;;;;;25.83;15.50;;;5.90;99.90;;;;;;4958364;28;20204;-77
2022/04/24 04:03:17;;;;;;;25.37;14.73;;;5.90;99.90;;;;;;4958289;28;20221;-74
2022/04/24 04:05:44;;;;;;;26.53;15.20;;;5.80;99.90;;;;;;4958081;28;20211;-77
2022/04/24 04:08:11;;;;;;;22.80;14.87;;;5.90;99.90;;;;;;4958094;28;20192;-77
2022/04/24 04:10:39;;;;;;;26.03;14.67;;;5.80;99.90;;;;;;4973919;28;20302;-77
2022/04/24 04:13:09;;;;;;;22.37;13.83;;;5.90;99.90;;;;;;4973985;28;20283;-77
2022/04/24 04:15:42;;;;;;;24.00;14.17;;;5.80;99.90;;;;;;4957533;28;20345;-77
2022/04/24 04:18:10;;;;;;;25.90;14.27;;;5.80;99.90;;;;;;4974056;28;20751;-78
2022/04/24 04:20:37;;;;;;;26.20;14.90;;;5.90;99.90;;;;;;4974085;28;20255;-77
2022/04/24 04:23:04;;;;;;;25.93;14.93;;;5.80;99.90;;;;;;4957889;28;20206;-77
2022/04/24 04:25:31;;;;;;;30.37;16.37;;;5.80;99.90;;;;;;4957770;28;20234;-77
2022/04/24 04:27:58;;;;;;;24.87;15.23;;;5.80;99.90;;;;;;4993462;28;20204;-78
2022/04/24 04:30:25;;;;;;;24.97;15.07;;;5.70;99.90;;;;;;5036586;28;20653;-78
2022/04/24 04:32:53;;;;;;;28.33;16.23;;;5.70;99.90;;;;;;5036598;28;20215;-78
2022/04/24 04:35:23;;;;;;;25.40;15.43;;;5.70;99.90;;;;;;5018601;28;20290;-77
2022/04/24 04:37:51;;;;;;;27.20;16.70;;;5.70;99.90;;;;;;5016938;28;20285;-78
2022/04/24 04:40:20;;;;;;;24.00;14.87;;;5.70;99.90;;;;;;5017050;28;20198;-78
2022/04/24 04:42:48;;;;;;;25.27;16.00;;;5.60;99.90;;;;;;5034728;28;20207;-77
2022/04/24 04:45:16;;;;;;;28.13;17.07;;;5.60;99.90;;;;;;5016133;28;20201;-77
2022/04/24 04:47:44;;;;;;;25.33;15.43;;;5.60;99.90;;;;;;5034340;28;20199;-77
2022/04/24 04:50:14;;;;;;;31.77;17.03;;;5.50;99.90;;;;;;5016772;28;20202;-77
2022/04/24 04:52:41;;;;;;;24.50;15.90;;;5.50;99.90;;;;;;5016358;28;20206;-77
2022/04/24 04:55:08;;;;;;;28.93;16.30;;;5.40;99.90;;;;;;5016149;28;20261;-76
2022/04/24 04:57:36;;;;;;;26.27;15.73;;;5.60;99.90;;;;;;5033319;28;20237;-76
2022/04/24 05:00:07;;;;;;;25.80;15.63;;;5.60;99.90;;;;;;5016141;28;20201;-77
2022/04/24 05:02:38;;;;;;;25.03;15.30;;;5.70;99.90;;;;;;5015939;28;20198;-76
2022/04/24 05:05:09;;;;;;;24.90;16.10;;;5.70;99.90;;;;;;5033184;28;20200;-76
2022/04/24 05:07:37;;;;;;;26.67;16.17;;;5.70;99.90;;;;;;5033713;28;20198;-77
2022/04/24 05:10:05;;;;;;;24.67;15.57;;;5.80;99.90;;;;;;5015891;28;20203;-76
2022/04/24 05:12:32;;;;;;;26.60;16.00;;;5.90;99.90;;;;;;5016180;28;20198;-77
2022/04/24 05:15:01;;;;;;;24.33;15.37;;;6.00;99.90;;;;;;5015444;28;20301;-77
2022/04/24 05:17:28;;;;;;;23.60;14.13;;;6.10;99.90;;;;;;5015896;28;20229;-76
2022/04/24 05:19:55;;;;;;;27.77;15.10;;;6.20;99.90;;;;;;5033440;28;20650;-76
2022/04/24 05:22:23;;;;;;;23.53;14.53;;;6.20;99.90;;;;;;5015765;28;20232;-76
2022/04/24 05:24:52;;;;;;;25.57;15.13;;;6.30;99.90;;;;;;5015879;28;20207;-77
2022/04/24 05:27:28;;;;;;;25.37;14.67;;;6.50;99.90;;;;;;5015789;28;20239;-77
2022/04/24 05:29:59;;;;;;;23.37;14.33;;;6.70;99.90;;;;;;5000710;28;20324;-77
2022/04/24 05:32:26;;;;;;;28.90;15.30;;;6.80;99.90;;;;;;5015692;28;20206;-76
2022/04/24 05:34:53;;;;;;;25.27;14.57;;;6.90;99.90;;;;;;5015440;28;20236;-76
2022/04/24 05:37:20;;;;;;;19.47;13.20;;;6.90;99.90;;;;;;5015507;28;20643;-75
2022/04/24 05:39:47;;;;;;;26.67;14.60;;;7.00;99.90;;;;;;5015673;28;20210;-75
2022/04/24 05:42:27;;;;;;;24.23;14.70;;;7.00;99.90;;;;;;5015447;28;20722;-76
2022/04/24 05:45:04;;;;;;;22.93;13.93;;;7.00;99.90;;;;;;5014156;28;20206;-76
2022/04/24 05:47:31;;;;;;;21.00;13.93;;;7.00;99.90;;;;;;5015462;28;20203;-75
2022/04/24 05:49:58;;;;;;;23.10;13.27;;;7.00;99.90;;;;;;5015626;28;20210;-75
2022/04/24 05:52:27;;;;;;;19.53;12.83;;;7.10;99.90;;;;;;5032838;28;20214;-75
2022/04/24 05:54:54;;;;;;;21.23;13.33;;;7.20;99.90;;;;;;5015336;28;20250;-76
2022/04/24 05:57:21;;;;;;;21.07;13.17;;;7.30;99.90;;;;;;5032937;28;20226;-75
2022/04/24 05:59:48;;;;;;;25.40;13.77;;;7.40;99.90;;;;;;5015636;28;20702;-75
2022/04/24 06:02:15;;;;;;;22.03;12.60;;;7.40;99.90;;;;;;5032887;28;20186;-75
2022/04/24 06:04:43;;;;;;;23.97;13.67;;;7.50;99.90;;;;;;5025998;28;20205;-76
2022/04/24 06:07:10;;;;;;;22.50;12.40;;;7.60;99.90;;;;;;5015361;28;20292;-76
2022/04/24 06:09:37;;;;;;;22.17;13.10;;;7.70;99.90;;;;;;5015140;28;20217;-75
2022/04/24 06:12:04;;;;;;;19.13;12.47;;;7.80;99.90;;;;;;5015372;28;20243;-75
2022/04/24 06:14:37;;;;;;;19.93;12.30;;;8.00;99.90;;;;;;5015196;28;20246;-75
2022/04/24 06:17:04;;;;;;;19.63;12.03;;;8.00;99.90;;;;;;5017788;28;20229;-75
2022/04/24 06:19:31;;;;;;;20.73;12.13;;;8.00;99.90;;;;;;5019198;28;20213;-74
2022/04/24 06:21:59;;;;;;;19.63;12.27;;;8.10;99.90;;;;;;5019051;28;20200;-74
2022/04/24 06:24:27;;;;;;;19.90;11.90;;;8.20;99.90;;;;;;5036535;28;20214;-74
2022/04/24 06:26:54;;;;;;;20.53;12.17;;;8.30;99.90;;;;;;5018871;28;20202;-75
2022/04/24 06:29:25;;;;;;;20.10;12.73;;;8.30;99.90;;;;;;5036714;28;20249;-75
2022/04/24 06:31:52;;;;;;;17.73;11.77;;;8.50;99.90;;;;;;5019283;28;20671;-75
2022/04/24 06:34:19;;;;;;;17.93;11.37;;;8.50;99.90;;;;;;5028163;28;20279;-75
2022/04/24 06:36:46;;;;;;;18.63;11.20;;;8.60;99.90;;;;;;5022225;28;20296;-75
2022/04/24 06:39:13;;;;;;;16.40;10.53;;;8.60;99.90;;;;;;5063379;28;20230;-75
2022/04/24 06:41:41;;;;;;;15.70;10.13;;;8.80;99.90;;;;;;5059672;28;20547;-75
2022/04/24 06:44:13;;;;;;;16.40;10.40;;;9.10;99.90;;;;;;5038123;28;20199;-76
2022/04/24 06:46:40;;;;;;;17.10;10.30;;;9.20;99.90;;;;;;5038364;28;20294;-75
2022/04/24 06:49:07;;;;;;;17.17;10.37;;;9.30;99.90;;;;;;5038213;28;20570;-77
2022/04/24 06:51:34;;;;;;;19.17;10.73;;;9.30;99.90;;;;;;5037942;28;20214;-76
2022/04/24 06:54:02;;;;;;;20.57;10.27;;;9.50;99.90;;;;;;5038254;28;20576;-76
2022/04/24 06:56:29;;;;;;;14.03;9.33;;;9.40;99.90;;;;;;5038331;28;20195;-76
2022/04/24 06:58:56;;;;;;;15.17;9.47;;;9.60;99.90;;;;;;5056493;28;20207;-76
2022/04/24 07:01:25;;;;;;;15.33;9.83;;;9.80;99.90;;;;;;5038055;28;20560;-77
2022/04/24 07:03:52;;;;;;;15.17;9.57;;;10.00;99.90;;;;;;5038323;28;20206;-75
2022/04/24 07:06:23;;;;;;;12.57;8.73;;;10.10;99.90;;;;;;5038057;28;20568;-76
2022/04/24 07:09:27;;;;;;;13.90;8.73;;;10.20;99.90;;;;;;5038366;28;20198;-76
2022/04/24 07:11:55;;;;;;;11.87;8.40;;;10.40;99.90;;;;;;4939538;29;20620;-76
2022/04/24 07:14:21;;;;;;;14.33;9.33;;;10.60;99.90;;;;;;4965663;28;20572;-75
2022/04/24 07:16:48;;;;;;;15.07;9.27;;;10.70;99.90;;;;;;4974533;28;20569;-77
2022/04/24 07:19:15;;;;;;;13.60;9.00;;;10.80;99.90;;;;;;4974862;28;20243;-77
2022/04/24 07:21:48;;;;;;;14.77;8.93;;;11.00;99.90;;;;;;4974870;28;20221;-76
2022/04/24 07:24:16;;;;;;;15.13;9.03;;;11.20;99.90;;;;;;4942538;28;20205;-78
2022/04/24 07:26:43;;;;;;;15.63;8.80;;;11.30;99.90;;;;;;4958064;28;20248;-76
2022/04/24 07:29:10;;;;;;;12.97;9.07;;;11.40;99.90;;;;;;4958274;28;20225;-79
2022/04/24 07:31:37;;;;;;;13.40;7.97;;;11.60;99.90;;;;;;4974458;28;20205;-77
2022/04/24 07:34:04;;;;;;;13.03;8.27;;;11.70;99.90;;;;;;4958165;28;20587;-76
2022/04/24 07:36:31;;;;;;;11.10;7.60;;;11.80;99.90;;;;;;4974091;28;20260;-77
2022/04/24 07:38:58;;;;;;;12.77;7.83;;;12.10;99.90;;;;;;4975075;28;20225;-77
2022/04/24 07:41:25;;;;;;;12.27;7.93;;;12.20;99.90;;;;;;4956944;28;20205;-77
2022/04/24 07:43:52;;;;;;;13.33;8.33;;;12.40;99.90;;;;;;4973918;28;20301;-77
2022/04/24 07:46:19;;;;;;;13.47;8.13;;;12.50;99.90;;;;;;4959174;28;20197;-77
2022/04/24 07:48:46;;;;;;;13.10;8.20;;;12.40;99.90;;;;;;5037205;28;20195;-77
2022/04/24 07:51:13;;;;;;;14.57;8.30;;;12.40;99.90;;;;;;5036731;28;20271;-77
2022/04/24 07:53:42;;;;;;;10.60;7.60;;;12.30;99.90;;;;;;5037272;28;20543;-76
2022/04/24 07:56:09;;;;;;;12.27;7.43;;;12.20;99.90;;;;;;5036951;28;20235;-74
2022/04/24 07:58:42;;;;;;;13.00;8.03;;;12.30;99.90;;;;;;5036955;28;20219;-76
2022/04/24 08:01:11;;;;;;;13.07;8.23;;;12.30;99.90;;;;;;5054574;28;20659;-75
2022/04/24 08:03:38;;;;;;;15.07;8.10;;;12.50;99.90;;;;;;5036789;28;20378;-75
2022/04/24 08:06:05;;;;;;;12.60;7.90;;;12.60;99.90;;;;;;5036920;28;20195;-83
2022/04/24 08:08:57;;;;;;;10.37;7.50;;;12.40;99.90;;;;;;5036972;28;20205;-81
2022/04/24 08:11:47;;;;;;;10.33;6.90;;;12.50;99.90;;;;;;4948799;28;20196;-79
2022/04/24 08:14:18;;;;;;;10.87;7.17;;;12.80;99.90;;;;;;4957414;28;20201;-81
2022/04/24 08:16:48;;;;;;;10.07;6.33;;;14.30;99.90;;;;;;4941519;28;20204;-84
2022/04/24 08:19:15;;;;;;;8.23;5.93;;;15.20;99.90;;;;;;4957525;28;20232;-74
2022/04/24 08:21:43;;;;;;;7.43;5.53;;;16.00;99.90;;;;;;4973677;28;20221;-76
2022/04/24 08:24:10;;;;;;;8.47;6.10;;;17.00;99.90;;;;;;4957267;28;20202;-75
2022/04/24 08:26:36;;;;;;;8.83;5.73;;;18.00;99.90;;;;;;4957503;28;20202;-80
2022/04/24 08:29:03;;;;;;;8.73;5.97;;;18.90;99.90;;;;;;4973776;28;20213;-77
2022/04/24 08:31:30;;;;;;;7.63;5.20;;;19.10;99.50;;;;;;4956819;28;20293;-76
2022/04/24 08:33:57;;;;;;;8.13;5.77;;;19.40;98.00;;;;;;4973621;28;20723;-84
2022/04/24 08:36:24;;;;;;;8.37;5.77;;;19.90;96.10;;;;;;4976094;28;20212;-78
2022/04/24 08:38:51;;;;;;;7.53;5.33;;;20.00;93.70;;;;;;4956888;28;20252;-89
2022/04/24 08:41:21;;;;;;;5.77;5.00;;;19.30;91.80;;;;;;4956813;28;20198;-80
2022/04/24 08:43:55;;;;;;;7.73;5.30;;;19.70;94.40;;;;;;4988071;28;20208;-81
2022/04/24 08:46:24;;;;;;;7.27;4.87;;;19.90;91.90;;;;;;4997062;28;20277;-77
2022/04/24 08:48:52;;;;;;;7.07;5.40;;;19.30;91.50;;;;;;5026910;28;20672;-87
2022/04/24 08:51:21;;;;;;;6.90;5.07;;;18.50;93.20;;;;;;5032969;28;20226;-75
2022/04/24 08:53:53;;;;;;;6.73;4.73;;;17.80;94.90;;;;;;5051955;28;20298;-96
2022/04/24 08:56:20;;;;;;;6.30;5.13;;;16.90;97.20;;;;;;5039261;28;20227;-95
2022/04/24 08:58:47;;;;;;;6.60;4.77;;;16.30;99.90;;;;;;5034606;28;20229;-92
2022/04/24 09:01:17;;;;;;;5.70;4.20;;;16.10;99.90;;;;;;5035186;28;20198;-87
2022/04/24 09:03:44;;;;;;;4.60;3.90;;;15.50;99.90;;;;;;5033770;28;20230;-81
2022/04/24 09:06:22;;;;;;;6.20;3.83;;;15.30;99.90;;;;;;5033234;28;20202;-87
2022/04/24 09:08:49;;;;;;;5.23;4.00;;;15.70;99.90;;;;;;5032338;28;20198;-76
2022/04/24 09:11:25;;;;;;;5.27;3.70;;;16.20;99.90;;;;;;5033774;28;20205;-76
2022/04/24 09:16:46;;;;;;;6.67;4.50;;;18.10;99.90;;;;;;5031881;28;20195;-79
2022/04/24 09:19:21;;;;;;;5.50;4.33;;;18.30;97.40;;;;;;5033645;28;20313;-86
2022/04/24 09:22:03;;;;;;;6.53;4.87;;;18.40;96.50;;;;;;5032167;28;20195;-77
2022/04/24 09:24:41;;;;;;;8.37;4.80;;;17.80;95.90;;;;;;5032137;28;20241;-76
2022/04/24 09:27:10;;;;;;;8.13;5.17;;;17.40;97.70;;;;;;5033796;28;20294;-75
2022/04/24 09:29:39;;;;;;;6.83;5.10;;;17.30;99.00;;;;;;5032407;28;20199;-87
2022/04/24 09:32:11;;;;;;;6.53;5.03;;;17.10;99.90;;;;;;5031992;28;20203;-78
2022/04/24 09:34:39;;;;;;;7.63;5.10;;;16.90;99.90;;;;;;5047308;28;20226;-79
2022/04/24 09:37:09;;;;;;;6.37;5.00;;;17.00;99.90;;;;;;5035341;28;20265;-75
2022/04/24 09:39:37;;;;;;;5.63;4.40;;;16.70;99.90;;;;;;5054510;28;20313;-77
2022/04/24 09:42:09;;;;;;;6.50;4.40;;;16.60;99.90;;;;;;5035338;28;20198;-76
2022/04/24 09:44:41;;;;;;;5.87;4.17;;;16.50;99.90;;;;;;5035938;28;20213;-75
2022/04/24 09:47:31;;;;;;;4.47;3.67;;;16.80;99.90;;;;;;5035427;28;20190;-79
2022/04/24 09:50:00;;;;;;;4.87;3.23;;;17.30;99.60;;;;;;5036108;28;20697;-75
2022/04/24 09:52:30;;;;;;;5.53;3.50;;;17.40;95.80;;;;;;5039289;28;20222;-82
2022/04/24 09:54:58;;;;;;;5.63;4.20;;;17.50;95.80;;;;;;5039571;28;20644;-77
2022/04/24 09:57:25;;;;;;;5.90;4.10;;;17.60;96.80;;;;;;5022898;28;20234;-75
2022/04/24 10:00:06;;;;;;;5.87;4.20;;;18.00;97.50;;;;;;5039371;28;20226;-81
2022/04/24 10:02:38;;;;;;;5.80;4.13;;;18.60;96.00;;;;;;5055479;28;20210;-78
2022/04/24 10:05:08;;;;;;;5.37;3.63;;;18.70;95.80;;;;;;5038763;28;20205;-78
2022/04/24 10:07:39;;;;;;;5.23;3.80;;;18.40;96.20;;;;;;5038606;28;20213;-75
2022/04/24 10:10:07;;;;;;;6.33;3.60;;;18.60;98.40;;;;;;5038946;28;20194;-77
2022/04/24 10:12:34;;;;;;;4.93;3.53;;;19.10;96.50;;;;;;5038650;28;20289;-76
2022/04/24 10:15:06;;;;;;;5.30;3.70;;;19.60;98.10;;;;;;5038639;28;20202;-77
2022/04/24 10:18:18;;;;;;;5.47;3.97;;;20.10;93.80;;;;;;5038292;28;20198;-76
2022/04/24 10:21:23;;;;;;;4.87;3.80;;;20.20;93.90;;;;;;5062958;28;20194;-75
2022/04/24 10:23:50;;;;;;;5.17;3.70;;;20.90;89.40;;;;;;5037909;28;20268;-76
2022/04/24 10:26:19;;;;;;;6.18;4.22;;;21.50;88.10;;;;;;5037846;28;20639;-75
2022/04/24 10:28:47;;;;;;;4.38;3.65;;;21.60;82.70;;;;;;5056380;28;20226;-76
2022/04/24 10:31:16;;;;;;;4.03;3.60;;;21.20;82.00;;;;;;5037968;28;20198;-77
2022/04/24 10:33:51;;;;;;;5.60;3.47;;;20.60;81.20;;;;;;5034570;28;20647;-76
2022/04/24 10:36:23;;;;;;;3.73;3.20;;;20.10;83.10;;;;;;5034818;28;20191;-90
2022/04/24 10:38:57;;;;;;;3.07;2.50;;;19.90;82.30;;;;;;5036533;28;20222;-89
2022/04/24 10:42:07;;;;;;;3.87;3.10;;;19.60;83.60;;;;;;5038453;28;20342;-91
2022/04/24 10:45:02;;;;;;;3.20;2.73;;;19.00;80.00;;;;;;5042344;28;20199;-91
2022/04/24 10:47:47;;;;;;;4.00;2.70;;;18.70;82.30;;;;;;5042238;28;20203;-83
2022/04/24 10:50:52;;;;;;;3.10;2.77;;;18.40;85.40;;;;;;5057273;28;20211;-93
2022/04/24 10:54:13;;;;;;;3.30;2.60;;;18.20;88.30;;;;;;5061998;28;20260;-80
2022/04/24 10:56:42;;;;;;;3.77;2.37;;;18.20;88.80;;;;;;5058471;28;20198;-91
2022/04/24 10:59:15;;;;;;;4.40;2.70;;;18.20;88.70;;;;;;5052485;28;20585;-81
2022/04/24 11:01:57;;;;;;;2.93;2.37;;;18.30;87.50;;;;;;5065628;28;20690;-92
2022/04/24 11:04:25;;;;;;;3.03;2.63;;;18.20;88.10;;;;;;5056208;28;20198;-76
2022/04/24 11:06:59;;;;;;;3.30;2.60;;;18.20;86.20;;;;;;5053372;28;20693;-77
2022/04/24 11:09:35;;;;;;;3.60;2.80;;;18.20;88.60;;;;;;5055419;28;20191;-79
2022/04/24 11:12:29;;;;;;;4.73;3.20;;;18.20;90.00;;;;;;5056238;28;20191;-80
2022/04/24 11:15:13;;;;;;;7.43;3.40;;;18.30;90.60;;;;;;5057353;28;20289;-92
2022/04/24 11:19:51;;;;;;;4.20;3.27;;;18.30;90.60;;;;;;4999992;28;20239;-76
2022/04/24 11:22:11;;;;;;;5.13;3.40;;;18.00;90.00;;;;;;4845504;29;20205;-80
2022/04/24 11:24:59;;;;;;;4.40;3.23;;;18.00;92.00;;;;;;4850484;29;20269;-74
2022/04/24 11:27:27;;;;;;;4.43;3.20;;;17.80;90.70;;;;;;4845392;29;20201;-75
2022/04/24 11:29:54;;;;;;;4.60;3.20;;;17.90;90.70;;;;;;4845290;29;20213;-73
2022/04/24 11:32:24;;;;;;;3.90;3.00;;;18.10;89.60;;;;;;4845151;29;20258;-74
2022/04/24 11:34:52;;;;;;;4.67;3.03;;;18.30;88.60;;;;;;4860342;29;20315;-75
2022/04/24 11:37:23;;;;;;;4.87;3.37;;;18.40;90.20;;;;;;4845205;29;20665;-73
2022/04/24 11:40:00;;;;;;;4.27;3.37;;;18.30;89.60;;;;;;4845070;29;20312;-73
2022/04/24 11:42:28;;;;;;;4.00;3.27;;;18.10;88.80;;;;;;4860623;29;20197;-75
2022/04/24 11:50:34;;;;;;;3.70;2.97;;;19.80;86.90;;;;;;4840744;29;20208;-78
2022/04/24 11:53:22;;;;;;;3.97;2.90;;;21.00;82.70;;;;;;4879073;29;20199;-80
2022/04/24 11:56:01;;;;;;;3.50;2.80;;;21.80;70.30;;;;;;4879666;29;20208;-85
2022/04/24 11:58:33;;;;;;;2.67;2.43;;;22.60;71.80;;;;;;4962738;28;20195;-82
2022/04/24 12:01:13;;;;;;;3.10;2.80;;;23.30;66.20;;;;;;5034090;28;20230;-80
2022/04/24 12:03:55;;;;;;;3.85;3.15;;;23.70;66.00;;;;;;5033933;28;20290;-83
2022/04/24 12:06:32;;;;;;;4.60;3.37;;;22.90;64.40;;;;;;5033877;28;20226;-81
2022/04/24 12:09:07;;;;;;;4.10;2.92;;;23.50;64.30;;;;;;5035605;28;20211;-81
2022/04/24 12:11:35;;;;;;;5.80;3.42;;;24.30;62.30;;;;;;5033707;28;20188;-87
2022/04/24 12:14:15;;;;;;;3.22;2.92;;;24.10;58.90;;;;;;5032946;28;20195;-85
2022/04/24 12:16:47;;;;;;;3.90;3.10;;;24.30;59.70;;;;;;5033841;28;20195;-76
2022/04/24 12:19:22;;;;;;;5.82;3.15;;;24.60;59.10;;;;;;5033350;28;20223;-77
2022/04/24 12:21:50;;;;;;;4.47;2.88;;;24.80;57.60;;;;;;5033150;28;20234;-79
2022/04/24 12:24:19;;;;;;;4.55;3.63;;;25.00;56.90;;;;;;5033550;28;20744;-78
2022/04/24 12:26:52;;;;;;;4.07;3.10;;;24.90;56.50;;;;;;5033371;28;20203;-78
2022/04/24 12:29:25;;;;;;;3.63;3.03;;;25.00;56.40;;;;;;5033533;28;20195;-80
2022/04/24 12:31:52;;;;;;;3.80;3.00;;;25.10;54.50;;;;;;5033508;28;20206;-81
2022/04/24 12:34:21;;;;;;;3.78;3.17;;;24.80;56.60;;;;;;5033134;28;20258;-77
2022/04/24 12:36:52;;;;;;;3.28;2.97;;;25.10;54.60;;;;;;5033234;28;20203;-76
2022/04/24 12:39:29;;;;;;;3.35;2.80;;;25.40;53.20;;;;;;5033032;28;20247;-77
2022/04/24 12:41:58;;;;;;;3.20;2.90;;;25.80;53.40;;;;;;5032958;28;20205;-75
2022/04/24 12:44:26;;;;;;;3.40;2.90;;;26.00;51.20;;;;;;5034117;28;20194;-75
2022/04/24 12:47:02;;;;;;;4.00;2.63;;;26.00;51.30;;;;;;5032766;28;20256;-75
2022/04/24 12:49:31;;;;;;;2.90;2.60;;;25.90;51.00;;;;;;5032862;28;20247;-73
2022/04/24 12:52:01;;;;;;;3.47;2.90;;;25.70;50.40;;;;;;5032649;28;20250;-75
2022/04/24 12:54:31;;;;;;;3.42;3.00;;;25.10;50.10;;;;;;5032796;28;20559;-74
2022/04/24 12:57:06;;;;;;;3.60;2.80;;;25.10;51.40;;;;;;5044697;28;20198;-80
2022/04/24 12:59:56;;;;;;;3.67;2.88;;;24.90;52.50;;;;;;5053858;28;20230;-74
2022/04/24 13:02:25;;;;;;;2.95;2.50;;;25.20;53.30;;;;;;5072000;28;20197;-73
2022/04/24 13:04:53;;;;;;;3.88;2.80;;;25.40;52.80;;;;;;5072052;28;20631;-77
2022/04/24 13:07:22;;;;;;;3.10;2.60;;;25.70;51.80;;;;;;5072181;28;20264;-79
2022/04/24 13:09:50;;;;;;;3.33;2.33;;;25.90;52.00;;;;;;5073268;28;20217;-75
2022/04/24 13:12:17;;;;;;;3.55;2.58;;;26.00;50.50;;;;;;5073391;28;20194;-74
2022/04/24 13:14:47;;;;;;;3.63;2.70;;;26.20;49.50;;;;;;5071776;28;20191;-74
2022/04/24 13:20:18;;;;;;;3.67;2.80;;;26.50;49.90;;;;;;5073630;28;20214;-73